sensor_id;sensor_type;location;lat;lon;timestamp;P1;durP1;ratioP1;P2;durP2;ratioP2
14191;SDS011;7177;48.572;7.838;2023-04-24T00:00:04;2.30;;;1.80;;
14191;SDS011;7177;48.572;7.838;2023-04-24T00:02:31;2.10;;;1.90;;
14191;SDS011;7177;48.572;7.838;2023-04-24T00:04:57;2.50;;;2.20;;
14191;SDS011;7177;48.572;7.838;2023-04-24T00:07:27;3.40;;;2.10;;
14191;SDS011;7177;48.572;7.838;2023-04-24T00:09:53;3.03;;;2.50;;
14191;SDS011;7177;48.572;7.838;2023-04-24T00:12:19;6.47;;;1.90;;
14191;SDS011;7177;48.572;7.838;2023-04-24T00:14:45;2.20;;;1.97;;
14191;SDS011;7177;48.572;7.838;2023-04-24T00:17:10;4.53;;;2.07;;
14191;SDS011;7177;48.572;7.838;2023-04-24T00:19:36;2.43;;;2.20;;
14191;SDS011;7177;48.572;7.838;2023-04-24T00:22:02;2.50;;;2.10;;
14191;SDS011;7177;48.572;7.838;2023-04-24T00:24:27;3.47;;;2.10;;
14191;SDS011;7177;48.572;7.838;2023-04-24T00:26:53;3.50;;;2.40;;
14191;SDS011;7177;48.572;7.838;2023-04-24T00:29:18;2.83;;;2.10;;
14191;SDS011;7177;48.572;7.838;2023-04-24T00:31:44;3.83;;;2.00;;
14191;SDS011;7177;48.572;7.838;2023-04-24T00:34:10;3.10;;;2.23;;
14191;SDS011;7177;48.572;7.838;2023-04-24T00:36:36;3.00;;;2.20;;
14191;SDS011;7177;48.572;7.838;2023-04-24T00:39:02;2.33;;;1.80;;
14191;SDS011;7177;48.572;7.838;2023-04-24T00:41:28;2.40;;;2.20;;
14191;SDS011;7177;48.572;7.838;2023-04-24T00:43:54;3.57;;;2.30;;
14191;SDS011;7177;48.572;7.838;2023-04-24T00:46:20;2.37;;;2.00;;
14191;SDS011;7177;48.572;7.838;2023-04-24T00:48:46;2.43;;;2.10;;
14191;SDS011;7177;48.572;7.838;2023-04-24T00:51:11;6.47;;;2.13;;
14191;SDS011;7177;48.572;7.838;2023-04-24T00:53:37;3.33;;;1.93;;
14191;SDS011;7177;48.572;7.838;2023-04-24T00:56:03;3.40;;;2.10;;
14191;SDS011;7177;48.572;7.838;2023-04-24T00:58:30;3.33;;;1.90;;
14191;SDS011;7177;48.572;7.838;2023-04-24T01:00:56;2.30;;;2.10;;
14191;SDS011;7177;48.572;7.838;2023-04-24T01:03:27;3.00;;;2.00;;
14191;SDS011;7177;48.572;7.838;2023-04-24T01:05:55;3.23;;;2.20;;
14191;SDS011;7177;48.572;7.838;2023-04-24T01:08:22;2.77;;;2.10;;
14191;SDS011;7177;48.572;7.838;2023-04-24T01:10:49;2.97;;;2.20;;
14191;SDS011;7177;48.572;7.838;2023-04-24T01:13:17;2.27;;;2.03;;
14191;SDS011;7177;48.572;7.838;2023-04-24T01:15:43;3.30;;;2.20;;
14191;SDS011;7177;48.572;7.838;2023-04-24T01:18:10;3.17;;;2.33;;
14191;SDS011;7177;48.572;7.838;2023-04-24T01:20:35;3.20;;;1.83;;
14191;SDS011;7177;48.572;7.838;2023-04-24T01:23:04;5.30;;;1.90;;
14191;SDS011;7177;48.572;7.838;2023-04-24T01:25:31;2.73;;;2.07;;
14191;SDS011;7177;48.572;7.838;2023-04-24T01:27:56;4.17;;;2.37;;
14191;SDS011;7177;48.572;7.838;2023-04-24T01:30:22;6.33;;;2.40;;
14191;SDS011;7177;48.572;7.838;2023-04-24T01:32:48;2.83;;;2.10;;
14191;SDS011;7177;48.572;7.838;2023-04-24T01:35:13;4.13;;;2.53;;
14191;SDS011;7177;48.572;7.838;2023-04-24T01:37:39;2.87;;;2.40;;
14191;SDS011;7177;48.572;7.838;2023-04-24T01:40:05;3.23;;;2.20;;
14191;SDS011;7177;48.572;7.838;2023-04-24T01:42:32;3.07;;;1.97;;
14191;SDS011;7177;48.572;7.838;2023-04-24T01:44:58;4.30;;;2.00;;
14191;SDS011;7177;48.572;7.838;2023-04-24T01:47:24;2.50;;;1.90;;
14191;SDS011;7177;48.572;7.838;2023-04-24T01:49:50;3.13;;;2.23;;
14191;SDS011;7177;48.572;7.838;2023-04-24T01:52:17;6.73;;;2.00;;
14191;SDS011;7177;48.572;7.838;2023-04-24T01:54:43;2.73;;;2.00;;
14191;SDS011;7177;48.572;7.838;2023-04-24T01:57:09;2.53;;;1.73;;
14191;SDS011;7177;48.572;7.838;2023-04-24T01:59:35;2.67;;;2.07;;
14191;SDS011;7177;48.572;7.838;2023-04-24T02:02:01;3.47;;;2.10;;
14191;SDS011;7177;48.572;7.838;2023-04-24T02:04:27;2.23;;;2.00;;
14191;SDS011;7177;48.572;7.838;2023-04-24T02:06:53;5.73;;;2.20;;
14191;SDS011;7177;48.572;7.838;2023-04-24T02:09:18;2.80;;;2.40;;
14191;SDS011;7177;48.572;7.838;2023-04-24T02:11:44;2.90;;;1.93;;
14191;SDS011;7177;48.572;7.838;2023-04-24T02:14:09;3.23;;;1.90;;
14191;SDS011;7177;48.572;7.838;2023-04-24T02:16:35;3.37;;;1.90;;
14191;SDS011;7177;48.572;7.838;2023-04-24T02:19:01;4.40;;;1.80;;
14191;SDS011;7177;48.572;7.838;2023-04-24T02:21:27;3.90;;;2.20;;
14191;SDS011;7177;48.572;7.838;2023-04-24T02:23:53;3.90;;;2.30;;
14191;SDS011;7177;48.572;7.838;2023-04-24T02:26:18;5.97;;;2.10;;
14191;SDS011;7177;48.572;7.838;2023-04-24T02:28:44;4.53;;;2.07;;
14191;SDS011;7177;48.572;7.838;2023-04-24T02:31:09;3.90;;;2.00;;
14191;SDS011;7177;48.572;7.838;2023-04-24T02:33:35;3.37;;;2.00;;
14191;SDS011;7177;48.572;7.838;2023-04-24T02:36:01;3.43;;;2.10;;
14191;SDS011;7177;48.572;7.838;2023-04-24T02:38:27;3.03;;;2.23;;
14191;SDS011;7177;48.572;7.838;2023-04-24T02:40:53;2.57;;;1.93;;
14191;SDS011;7177;48.572;7.838;2023-04-24T02:43:19;4.37;;;2.03;;
14191;SDS011;7177;48.572;7.838;2023-04-24T02:45:45;6.10;;;1.83;;
14191;SDS011;7177;48.572;7.838;2023-04-24T02:48:11;3.40;;;1.90;;
14191;SDS011;7177;48.572;7.838;2023-04-24T02:50:36;2.40;;;1.93;;
14191;SDS011;7177;48.572;7.838;2023-04-24T02:53:02;3.97;;;2.03;;
14191;SDS011;7177;48.572;7.838;2023-04-24T02:55:28;6.27;;;2.57;;
14191;SDS011;7177;48.572;7.838;2023-04-24T02:57:53;2.37;;;2.10;;
14191;SDS011;7177;48.572;7.838;2023-04-24T03:00:19;3.07;;;2.10;;
14191;SDS011;7177;48.572;7.838;2023-04-24T03:02:44;3.90;;;2.00;;
14191;SDS011;7177;48.572;7.838;2023-04-24T03:05:10;3.07;;;1.90;;
14191;SDS011;7177;48.572;7.838;2023-04-24T03:07:36;4.57;;;1.93;;
14191;SDS011;7177;48.572;7.838;2023-04-24T03:10:02;2.53;;;1.90;;
14191;SDS011;7177;48.572;7.838;2023-04-24T03:12:29;4.10;;;2.17;;
14191;SDS011;7177;48.572;7.838;2023-04-24T03:14:55;3.10;;;2.17;;
14191;SDS011;7177;48.572;7.838;2023-04-24T03:17:21;4.77;;;2.20;;
14191;SDS011;7177;48.572;7.838;2023-04-24T03:19:46;4.10;;;2.40;;
14191;SDS011;7177;48.572;7.838;2023-04-24T03:22:12;3.50;;;2.00;;
14191;SDS011;7177;48.572;7.838;2023-04-24T03:24:37;3.57;;;2.43;;
14191;SDS011;7177;48.572;7.838;2023-04-24T03:27:03;3.70;;;2.47;;
14191;SDS011;7177;48.572;7.838;2023-04-24T03:29:28;3.30;;;2.60;;
14191;SDS011;7177;48.572;7.838;2023-04-24T03:31:54;3.47;;;2.77;;
14191;SDS011;7177;48.572;7.838;2023-04-24T03:34:19;3.10;;;2.73;;
14191;SDS011;7177;48.572;7.838;2023-04-24T03:36:45;5.03;;;3.07;;
14191;SDS011;7177;48.572;7.838;2023-04-24T03:39:12;4.80;;;2.70;;
14191;SDS011;7177;48.572;7.838;2023-04-24T03:41:38;5.47;;;3.00;;
14191;SDS011;7177;48.572;7.838;2023-04-24T03:44:03;4.30;;;2.30;;
14191;SDS011;7177;48.572;7.838;2023-04-24T03:46:29;5.27;;;2.80;;
14191;SDS011;7177;48.572;7.838;2023-04-24T03:48:55;3.80;;;2.67;;
14191;SDS011;7177;48.572;7.838;2023-04-24T03:51:20;5.43;;;2.87;;
14191;SDS011;7177;48.572;7.838;2023-04-24T03:53:46;4.13;;;2.70;;
14191;SDS011;7177;48.572;7.838;2023-04-24T03:56:12;6.57;;;2.67;;
14191;SDS011;7177;48.572;7.838;2023-04-24T03:58:37;6.53;;;2.63;;
14191;SDS011;7177;48.572;7.838;2023-04-24T04:01:03;2.97;;;2.67;;
14191;SDS011;7177;48.572;7.838;2023-04-24T04:03:28;3.27;;;2.60;;
14191;SDS011;7177;48.572;7.838;2023-04-24T04:05:54;2.90;;;2.47;;
14191;SDS011;7177;48.572;7.838;2023-04-24T04:08:20;4.17;;;2.70;;
14191;SDS011;7177;48.572;7.838;2023-04-24T04:10:45;4.93;;;2.97;;
14191;SDS011;7177;48.572;7.838;2023-04-24T04:13:11;3.97;;;2.83;;
14191;SDS011;7177;48.572;7.838;2023-04-24T04:15:36;7.27;;;3.73;;
14191;SDS011;7177;48.572;7.838;2023-04-24T04:18:02;4.63;;;3.00;;
14191;SDS011;7177;48.572;7.838;2023-04-24T04:20:27;4.60;;;3.00;;
14191;SDS011;7177;48.572;7.838;2023-04-24T04:22:53;4.03;;;2.53;;
14191;SDS011;7177;48.572;7.838;2023-04-24T04:25:18;5.00;;;2.80;;
14191;SDS011;7177;48.572;7.838;2023-04-24T04:27:44;3.60;;;2.70;;
14191;SDS011;7177;48.572;7.838;2023-04-24T04:30:12;5.20;;;2.80;;
14191;SDS011;7177;48.572;7.838;2023-04-24T04:32:39;3.43;;;2.73;;
14191;SDS011;7177;48.572;7.838;2023-04-24T04:35:04;8.97;;;3.10;;
14191;SDS011;7177;48.572;7.838;2023-04-24T04:37:30;3.97;;;2.60;;
14191;SDS011;7177;48.572;7.838;2023-04-24T04:39:59;2.93;;;2.60;;
14191;SDS011;7177;48.572;7.838;2023-04-24T04:42:26;2.50;;;2.30;;
14191;SDS011;7177;48.572;7.838;2023-04-24T04:44:52;4.57;;;2.60;;
14191;SDS011;7177;48.572;7.838;2023-04-24T04:47:18;3.17;;;2.87;;
14191;SDS011;7177;48.572;7.838;2023-04-24T04:49:47;3.27;;;2.63;;
14191;SDS011;7177;48.572;7.838;2023-04-24T04:52:13;5.67;;;3.50;;
14191;SDS011;7177;48.572;7.838;2023-04-24T04:54:38;4.27;;;3.23;;
14191;SDS011;7177;48.572;7.838;2023-04-24T04:57:04;4.03;;;3.00;;
14191;SDS011;7177;48.572;7.838;2023-04-24T04:59:30;5.17;;;3.00;;
14191;SDS011;7177;48.572;7.838;2023-04-24T05:01:55;5.07;;;3.27;;
14191;SDS011;7177;48.572;7.838;2023-04-24T05:04:20;4.30;;;2.83;;
14191;SDS011;7177;48.572;7.838;2023-04-24T05:06:46;5.40;;;3.33;;
14191;SDS011;7177;48.572;7.838;2023-04-24T05:09:12;2.90;;;2.57;;
14191;SDS011;7177;48.572;7.838;2023-04-24T05:11:37;3.20;;;2.63;;
14191;SDS011;7177;48.572;7.838;2023-04-24T05:14:03;4.53;;;3.00;;
14191;SDS011;7177;48.572;7.838;2023-04-24T05:16:29;4.87;;;3.10;;
14191;SDS011;7177;48.572;7.838;2023-04-24T05:18:55;3.50;;;3.00;;
14191;SDS011;7177;48.572;7.838;2023-04-24T05:21:21;4.47;;;2.87;;
14191;SDS011;7177;48.572;7.838;2023-04-24T05:23:46;3.70;;;2.43;;
14191;SDS011;7177;48.572;7.838;2023-04-24T05:26:12;2.83;;;2.53;;
14191;SDS011;7177;48.572;7.838;2023-04-24T05:28:38;3.17;;;2.37;;
14191;SDS011;7177;48.572;7.838;2023-04-24T05:31:04;2.90;;;2.57;;
14191;SDS011;7177;48.572;7.838;2023-04-24T05:33:29;3.10;;;2.63;;
14191;SDS011;7177;48.572;7.838;2023-04-24T05:35:55;4.10;;;2.80;;
14191;SDS011;7177;48.572;7.838;2023-04-24T05:38:21;4.40;;;2.87;;
14191;SDS011;7177;48.572;7.838;2023-04-24T05:40:46;4.80;;;3.00;;
14191;SDS011;7177;48.572;7.838;2023-04-24T05:43:12;3.23;;;2.80;;
14191;SDS011;7177;48.572;7.838;2023-04-24T05:45:38;3.97;;;2.60;;
14191;SDS011;7177;48.572;7.838;2023-04-24T05:48:03;3.73;;;2.40;;
14191;SDS011;7177;48.572;7.838;2023-04-24T05:50:29;3.37;;;2.50;;
14191;SDS011;7177;48.572;7.838;2023-04-24T05:52:55;3.50;;;2.40;;
14191;SDS011;7177;48.572;7.838;2023-04-24T05:55:23;5.03;;;2.60;;
14191;SDS011;7177;48.572;7.838;2023-04-24T05:57:49;5.53;;;2.83;;
14191;SDS011;7177;48.572;7.838;2023-04-24T06:00:15;4.50;;;3.07;;
14191;SDS011;7177;48.572;7.838;2023-04-24T06:02:40;5.63;;;3.00;;
14191;SDS011;7177;48.572;7.838;2023-04-24T06:05:06;4.83;;;2.90;;
14191;SDS011;7177;48.572;7.838;2023-04-24T06:07:33;4.07;;;3.30;;
14191;SDS011;7177;48.572;7.838;2023-04-24T06:09:59;6.03;;;3.37;;
14191;SDS011;7177;48.572;7.838;2023-04-24T06:12:25;5.07;;;3.87;;
14191;SDS011;7177;48.572;7.838;2023-04-24T06:14:50;6.57;;;3.40;;
14191;SDS011;7177;48.572;7.838;2023-04-24T06:17:16;4.60;;;3.37;;
14191;SDS011;7177;48.572;7.838;2023-04-24T06:19:42;8.23;;;3.43;;
14191;SDS011;7177;48.572;7.838;2023-04-24T06:22:07;5.67;;;3.10;;
14191;SDS011;7177;48.572;7.838;2023-04-24T06:24:33;8.03;;;2.90;;
14191;SDS011;7177;48.572;7.838;2023-04-24T06:26:59;4.97;;;2.83;;
14191;SDS011;7177;48.572;7.838;2023-04-24T06:29:26;4.37;;;3.10;;
14191;SDS011;7177;48.572;7.838;2023-04-24T06:31:52;3.70;;;3.30;;
14191;SDS011;7177;48.572;7.838;2023-04-24T06:34:17;7.03;;;3.57;;
14191;SDS011;7177;48.572;7.838;2023-04-24T06:36:43;4.50;;;3.20;;
14191;SDS011;7177;48.572;7.838;2023-04-24T06:39:08;3.60;;;3.00;;
14191;SDS011;7177;48.572;7.838;2023-04-24T06:41:34;3.87;;;2.60;;
14191;SDS011;7177;48.572;7.838;2023-04-24T06:44:00;4.10;;;2.57;;
14191;SDS011;7177;48.572;7.838;2023-04-24T06:46:25;3.13;;;2.30;;
14191;SDS011;7177;48.572;7.838;2023-04-24T06:48:52;4.57;;;2.20;;
14191;SDS011;7177;48.572;7.838;2023-04-24T06:51:21;3.57;;;2.30;;
14191;SDS011;7177;48.572;7.838;2023-04-24T06:53:49;4.13;;;2.30;;
14191;SDS011;7177;48.572;7.838;2023-04-24T06:56:16;4.70;;;2.77;;
14191;SDS011;7177;48.572;7.838;2023-04-24T06:58:41;3.87;;;2.40;;
14191;SDS011;7177;48.572;7.838;2023-04-24T07:01:07;3.17;;;2.50;;
14191;SDS011;7177;48.572;7.838;2023-04-24T07:03:32;2.93;;;2.27;;
14191;SDS011;7177;48.572;7.838;2023-04-24T07:05:58;2.47;;;2.20;;
14191;SDS011;7177;48.572;7.838;2023-04-24T07:08:23;4.07;;;2.27;;
14191;SDS011;7177;48.572;7.838;2023-04-24T07:10:50;5.03;;;2.60;;
14191;SDS011;7177;48.572;7.838;2023-04-24T07:13:16;6.57;;;2.40;;
14191;SDS011;7177;48.572;7.838;2023-04-24T07:15:42;2.90;;;2.23;;
14191;SDS011;7177;48.572;7.838;2023-04-24T07:18:07;4.73;;;2.43;;
14191;SDS011;7177;48.572;7.838;2023-04-24T07:20:33;5.83;;;2.70;;
14191;SDS011;7177;48.572;7.838;2023-04-24T07:22:59;3.67;;;2.43;;
14191;SDS011;7177;48.572;7.838;2023-04-24T07:25:24;5.23;;;2.50;;
14191;SDS011;7177;48.572;7.838;2023-04-24T07:27:50;4.50;;;3.43;;
14191;SDS011;7177;48.572;7.838;2023-04-24T07:30:15;5.80;;;3.73;;
14191;SDS011;7177;48.572;7.838;2023-04-24T07:32:41;2.50;;;2.17;;
14191;SDS011;7177;48.572;7.838;2023-04-24T07:35:06;3.70;;;2.10;;
14191;SDS011;7177;48.572;7.838;2023-04-24T07:37:34;6.20;;;2.60;;
14191;SDS011;7177;48.572;7.838;2023-04-24T07:40:00;4.47;;;2.33;;
14191;SDS011;7177;48.572;7.838;2023-04-24T07:42:25;5.53;;;2.60;;
14191;SDS011;7177;48.572;7.838;2023-04-24T07:44:51;3.30;;;2.20;;
14191;SDS011;7177;48.572;7.838;2023-04-24T07:47:16;5.60;;;2.20;;
14191;SDS011;7177;48.572;7.838;2023-04-24T07:49:42;3.97;;;2.23;;
14191;SDS011;7177;48.572;7.838;2023-04-24T07:52:08;4.77;;;2.60;;
14191;SDS011;7177;48.572;7.838;2023-04-24T07:54:33;4.47;;;2.00;;
14191;SDS011;7177;48.572;7.838;2023-04-24T07:56:59;2.87;;;1.77;;
14191;SDS011;7177;48.572;7.838;2023-04-24T07:59:25;4.20;;;2.30;;
14191;SDS011;7177;48.572;7.838;2023-04-24T08:01:51;3.87;;;2.00;;
14191;SDS011;7177;48.572;7.838;2023-04-24T08:04:17;2.60;;;1.97;;
14191;SDS011;7177;48.572;7.838;2023-04-24T08:06:43;5.13;;;2.20;;
14191;SDS011;7177;48.572;7.838;2023-04-24T08:09:08;2.00;;;1.70;;
14191;SDS011;7177;48.572;7.838;2023-04-24T08:11:34;4.27;;;2.00;;
14191;SDS011;7177;48.572;7.838;2023-04-24T08:14:00;5.03;;;1.87;;
14191;SDS011;7177;48.572;7.838;2023-04-24T08:16:26;3.83;;;2.00;;
14191;SDS011;7177;48.572;7.838;2023-04-24T08:18:51;2.20;;;1.80;;
14191;SDS011;7177;48.572;7.838;2023-04-24T08:21:17;3.47;;;1.97;;
14191;SDS011;7177;48.572;7.838;2023-04-24T08:23:44;7.00;;;2.03;;
14191;SDS011;7177;48.572;7.838;2023-04-24T08:26:10;4.00;;;2.00;;
14191;SDS011;7177;48.572;7.838;2023-04-24T08:28:36;4.77;;;2.13;;
14191;SDS011;7177;48.572;7.838;2023-04-24T08:31:02;2.47;;;2.00;;
14191;SDS011;7177;48.572;7.838;2023-04-24T08:33:28;4.90;;;2.23;;
14191;SDS011;7177;48.572;7.838;2023-04-24T08:35:59;6.17;;;2.30;;
14191;SDS011;7177;48.572;7.838;2023-04-24T08:38:28;6.90;;;2.10;;
14191;SDS011;7177;48.572;7.838;2023-04-24T08:40:54;3.00;;;2.00;;
14191;SDS011;7177;48.572;7.838;2023-04-24T08:43:21;4.03;;;1.97;;
14191;SDS011;7177;48.572;7.838;2023-04-24T08:45:48;2.67;;;1.80;;
14191;SDS011;7177;48.572;7.838;2023-04-24T08:48:13;4.27;;;2.20;;
14191;SDS011;7177;48.572;7.838;2023-04-24T08:50:40;4.57;;;1.77;;
14191;SDS011;7177;48.572;7.838;2023-04-24T08:53:07;2.20;;;1.83;;
14191;SDS011;7177;48.572;7.838;2023-04-24T08:55:33;3.13;;;2.10;;
14191;SDS011;7177;48.572;7.838;2023-04-24T08:58:00;5.37;;;1.90;;
14191;SDS011;7177;48.572;7.838;2023-04-24T09:00:27;3.30;;;2.00;;
14191;SDS011;7177;48.572;7.838;2023-04-24T09:02:53;5.80;;;2.30;;
14191;SDS011;7177;48.572;7.838;2023-04-24T09:05:20;3.43;;;1.93;;
14191;SDS011;7177;48.572;7.838;2023-04-24T09:07:53;3.67;;;2.33;;
14191;SDS011;7177;48.572;7.838;2023-04-24T09:10:21;4.53;;;2.20;;
14191;SDS011;7177;48.572;7.838;2023-04-24T09:12:50;2.90;;;1.80;;
14191;SDS011;7177;48.572;7.838;2023-04-24T09:15:18;6.77;;;2.50;;
14191;SDS011;7177;48.572;7.838;2023-04-24T09:17:45;5.50;;;2.20;;
14191;SDS011;7177;48.572;7.838;2023-04-24T09:20:11;3.23;;;2.00;;
14191;SDS011;7177;48.572;7.838;2023-04-24T09:22:36;3.03;;;2.07;;
14191;SDS011;7177;48.572;7.838;2023-04-24T09:25:03;2.63;;;2.00;;
14191;SDS011;7177;48.572;7.838;2023-04-24T09:27:31;2.40;;;1.90;;
14191;SDS011;7177;48.572;7.838;2023-04-24T09:29:58;4.27;;;2.20;;
14191;SDS011;7177;48.572;7.838;2023-04-24T09:32:24;4.00;;;2.07;;
14191;SDS011;7177;48.572;7.838;2023-04-24T09:35:04;3.70;;;2.10;;
14191;SDS011;7177;48.572;7.838;2023-04-24T09:37:34;2.20;;;1.80;;
14191;SDS011;7177;48.572;7.838;2023-04-24T09:40:11;2.93;;;2.00;;
14191;SDS011;7177;48.572;7.838;2023-04-24T09:42:37;4.30;;;2.10;;
14191;SDS011;7177;48.572;7.838;2023-04-24T09:45:03;2.67;;;1.73;;
14191;SDS011;7177;48.572;7.838;2023-04-24T09:47:36;7.53;;;1.87;;
14191;SDS011;7177;48.572;7.838;2023-04-24T09:50:15;2.83;;;1.87;;
14191;SDS011;7177;48.572;7.838;2023-04-24T09:52:45;2.67;;;1.87;;
14191;SDS011;7177;48.572;7.838;2023-04-24T09:55:13;2.67;;;1.73;;
14191;SDS011;7177;48.572;7.838;2023-04-24T09:57:48;2.13;;;1.70;;
14191;SDS011;7177;48.572;7.838;2023-04-24T10:00:17;1.90;;;1.40;;
14191;SDS011;7177;48.572;7.838;2023-04-24T10:02:57;3.77;;;1.47;;
14191;SDS011;7177;48.572;7.838;2023-04-24T10:05:23;4.90;;;1.67;;
14191;SDS011;7177;48.572;7.838;2023-04-24T10:07:50;1.83;;;1.50;;
14191;SDS011;7177;48.572;7.838;2023-04-24T10:10:16;1.90;;;1.47;;
14191;SDS011;7177;48.572;7.838;2023-04-24T10:12:42;2.70;;;1.63;;
14191;SDS011;7177;48.572;7.838;2023-04-24T10:15:09;1.50;;;1.40;;
14191;SDS011;7177;48.572;7.838;2023-04-24T10:17:37;2.27;;;1.60;;
14191;SDS011;7177;48.572;7.838;2023-04-24T10:20:04;1.90;;;1.60;;
14191;SDS011;7177;48.572;7.838;2023-04-24T10:22:31;2.50;;;1.50;;
14191;SDS011;7177;48.572;7.838;2023-04-24T10:24:58;4.37;;;1.80;;
14191;SDS011;7177;48.572;7.838;2023-04-24T10:27:25;2.70;;;1.80;;
14191;SDS011;7177;48.572;7.838;2023-04-24T10:29:52;3.47;;;1.80;;
14191;SDS011;7177;48.572;7.838;2023-04-24T10:32:18;2.83;;;2.07;;
14191;SDS011;7177;48.572;7.838;2023-04-24T10:34:43;4.70;;;2.00;;
14191;SDS011;7177;48.572;7.838;2023-04-24T10:37:10;3.70;;;2.20;;
14191;SDS011;7177;48.572;7.838;2023-04-24T10:39:35;2.47;;;1.90;;
14191;SDS011;7177;48.572;7.838;2023-04-24T10:42:02;3.77;;;2.00;;
14191;SDS011;7177;48.572;7.838;2023-04-24T10:44:40;3.70;;;2.07;;
14191;SDS011;7177;48.572;7.838;2023-04-24T10:47:06;2.67;;;2.10;;
14191;SDS011;7177;48.572;7.838;2023-04-24T10:49:38;3.90;;;1.83;;
14191;SDS011;7177;48.572;7.838;2023-04-24T10:52:03;2.67;;;1.90;;
14191;SDS011;7177;48.572;7.838;2023-04-24T10:54:36;2.73;;;1.97;;
14191;SDS011;7177;48.572;7.838;2023-04-24T10:59:47;4.47;;;2.20;;
14191;SDS011;7177;48.572;7.838;2023-04-24T11:02:16;3.43;;;1.90;;
14191;SDS011;7177;48.572;7.838;2023-04-24T11:04:43;1.73;;;1.60;;
14191;SDS011;7177;48.572;7.838;2023-04-24T11:07:10;2.10;;;1.63;;
14191;SDS011;7177;48.572;7.838;2023-04-24T11:09:36;3.20;;;1.47;;
14191;SDS011;7177;48.572;7.838;2023-04-24T11:12:02;2.27;;;1.97;;
14191;SDS011;7177;48.572;7.838;2023-04-24T11:17:36;5.40;;;2.10;;
14191;SDS011;7177;48.572;7.838;2023-04-24T11:20:05;6.33;;;2.23;;
14191;SDS011;7177;48.572;7.838;2023-04-24T11:22:41;4.83;;;2.10;;
14191;SDS011;7177;48.572;7.838;2023-04-24T11:25:06;3.70;;;2.20;;
14191;SDS011;7177;48.572;7.838;2023-04-24T11:27:42;4.63;;;2.03;;
14191;SDS011;7177;48.572;7.838;2023-04-24T11:30:09;3.50;;;2.20;;
14191;SDS011;7177;48.572;7.838;2023-04-24T11:32:36;4.00;;;2.20;;
14191;SDS011;7177;48.572;7.838;2023-04-24T11:35:04;3.93;;;2.17;;
14191;SDS011;7177;48.572;7.838;2023-04-24T11:37:44;4.97;;;2.03;;
14191;SDS011;7177;48.572;7.838;2023-04-24T11:40:11;2.43;;;2.10;;
14191;SDS011;7177;48.572;7.838;2023-04-24T11:42:40;3.90;;;2.60;;
14191;SDS011;7177;48.572;7.838;2023-04-24T11:45:10;2.87;;;2.07;;
14191;SDS011;7177;48.572;7.838;2023-04-24T11:47:41;4.03;;;2.40;;
14191;SDS011;7177;48.572;7.838;2023-04-24T11:50:08;3.90;;;2.20;;
14191;SDS011;7177;48.572;7.838;2023-04-24T11:52:37;2.50;;;2.07;;
14191;SDS011;7177;48.572;7.838;2023-04-24T11:55:03;8.10;;;2.20;;
14191;SDS011;7177;48.572;7.838;2023-04-24T11:57:29;3.73;;;2.03;;
14191;SDS011;7177;48.572;7.838;2023-04-24T12:00:02;4.03;;;2.60;;
14191;SDS011;7177;48.572;7.838;2023-04-24T12:02:30;5.50;;;2.73;;
14191;SDS011;7177;48.572;7.838;2023-04-24T12:04:55;5.00;;;2.43;;
14191;SDS011;7177;48.572;7.838;2023-04-24T12:07:21;2.57;;;2.00;;
14191;SDS011;7177;48.572;7.838;2023-04-24T12:09:50;3.80;;;2.30;;
14191;SDS011;7177;48.572;7.838;2023-04-24T12:12:23;2.90;;;2.20;;
14191;SDS011;7177;48.572;7.838;2023-04-24T12:17:30;3.30;;;2.20;;
14191;SDS011;7177;48.572;7.838;2023-04-24T12:19:58;2.57;;;2.07;;
14191;SDS011;7177;48.572;7.838;2023-04-24T12:22:42;2.83;;;1.90;;
14191;SDS011;7177;48.572;7.838;2023-04-24T12:25:11;3.13;;;1.97;;
14191;SDS011;7177;48.572;7.838;2023-04-24T12:27:37;5.23;;;2.50;;
14191;SDS011;7177;48.572;7.838;2023-04-24T12:30:03;3.17;;;2.37;;
14191;SDS011;7177;48.572;7.838;2023-04-24T12:32:30;2.47;;;1.97;;
14191;SDS011;7177;48.572;7.838;2023-04-24T12:34:57;3.00;;;2.27;;
14191;SDS011;7177;48.572;7.838;2023-04-24T12:37:26;2.57;;;2.37;;
14191;SDS011;7177;48.572;7.838;2023-04-24T12:40:07;6.87;;;2.57;;
14191;SDS011;7177;48.572;7.838;2023-04-24T12:42:41;4.07;;;2.63;;
14191;SDS011;7177;48.572;7.838;2023-04-24T12:45:08;2.93;;;2.40;;
14191;SDS011;7177;48.572;7.838;2023-04-24T12:47:34;6.80;;;2.87;;
14191;SDS011;7177;48.572;7.838;2023-04-24T12:50:00;3.23;;;2.50;;
14191;SDS011;7177;48.572;7.838;2023-04-24T12:52:27;5.30;;;2.40;;
14191;SDS011;7177;48.572;7.838;2023-04-24T12:54:54;5.03;;;2.67;;
14191;SDS011;7177;48.572;7.838;2023-04-24T12:57:21;4.70;;;2.53;;
14191;SDS011;7177;48.572;7.838;2023-04-24T12:59:47;5.27;;;2.77;;
14191;SDS011;7177;48.572;7.838;2023-04-24T13:02:13;5.33;;;3.40;;
14191;SDS011;7177;48.572;7.838;2023-04-24T13:04:42;4.40;;;2.63;;
14191;SDS011;7177;48.572;7.838;2023-04-24T13:07:14;2.97;;;2.10;;
14191;SDS011;7177;48.572;7.838;2023-04-24T13:09:40;4.07;;;2.40;;
14191;SDS011;7177;48.572;7.838;2023-04-24T13:12:07;4.40;;;2.23;;
14191;SDS011;7177;48.572;7.838;2023-04-24T13:14:33;3.07;;;2.20;;
14191;SDS011;7177;48.572;7.838;2023-04-24T13:16:59;2.77;;;2.20;;
14191;SDS011;7177;48.572;7.838;2023-04-24T13:19:26;2.53;;;1.80;;
14191;SDS011;7177;48.572;7.838;2023-04-24T13:21:52;4.13;;;2.17;;
14191;SDS011;7177;48.572;7.838;2023-04-24T13:24:20;3.63;;;2.30;;
14191;SDS011;7177;48.572;7.838;2023-04-24T13:26:45;5.07;;;1.83;;
14191;SDS011;7177;48.572;7.838;2023-04-24T13:29:11;4.57;;;1.77;;
14191;SDS011;7177;48.572;7.838;2023-04-24T13:31:36;4.40;;;2.17;;
14191;SDS011;7177;48.572;7.838;2023-04-24T13:34:02;2.33;;;1.70;;
14191;SDS011;7177;48.572;7.838;2023-04-24T13:36:28;3.90;;;2.40;;
14191;SDS011;7177;48.572;7.838;2023-04-24T13:38:55;5.37;;;2.40;;
14191;SDS011;7177;48.572;7.838;2023-04-24T13:41:20;5.43;;;2.10;;
14191;SDS011;7177;48.572;7.838;2023-04-24T13:43:46;4.00;;;2.50;;
14191;SDS011;7177;48.572;7.838;2023-04-24T13:46:12;4.53;;;2.17;;
14191;SDS011;7177;48.572;7.838;2023-04-24T13:48:37;5.27;;;2.40;;
14191;SDS011;7177;48.572;7.838;2023-04-24T13:51:03;4.63;;;2.10;;
14191;SDS011;7177;48.572;7.838;2023-04-24T13:53:28;2.93;;;2.20;;
14191;SDS011;7177;48.572;7.838;2023-04-24T13:55:54;5.23;;;2.23;;
14191;SDS011;7177;48.572;7.838;2023-04-24T13:58:19;3.83;;;2.00;;
14191;SDS011;7177;48.572;7.838;2023-04-24T14:00:45;2.97;;;2.10;;
14191;SDS011;7177;48.572;7.838;2023-04-24T14:03:11;2.87;;;2.53;;
14191;SDS011;7177;48.572;7.838;2023-04-24T14:05:36;2.47;;;2.00;;
14191;SDS011;7177;48.572;7.838;2023-04-24T14:08:02;2.77;;;2.00;;
14191;SDS011;7177;48.572;7.838;2023-04-24T14:10:27;2.77;;;2.53;;
14191;SDS011;7177;48.572;7.838;2023-04-24T14:12:53;4.57;;;2.20;;
14191;SDS011;7177;48.572;7.838;2023-04-24T14:15:19;2.70;;;2.03;;
14191;SDS011;7177;48.572;7.838;2023-04-24T14:17:44;2.30;;;1.90;;
14191;SDS011;7177;48.572;7.838;2023-04-24T14:20:10;7.20;;;4.80;;
14191;SDS011;7177;48.572;7.838;2023-04-24T14:22:37;4.43;;;1.73;;
14191;SDS011;7177;48.572;7.838;2023-04-24T14:25:02;1.80;;;1.57;;
14191;SDS011;7177;48.572;7.838;2023-04-24T14:27:29;3.13;;;1.70;;
14191;SDS011;7177;48.572;7.838;2023-04-24T14:29:55;2.27;;;1.60;;
14191;SDS011;7177;48.572;7.838;2023-04-24T14:32:20;2.53;;;1.90;;
14191;SDS011;7177;48.572;7.838;2023-04-24T14:34:46;2.93;;;2.10;;
14191;SDS011;7177;48.572;7.838;2023-04-24T14:37:11;2.53;;;1.80;;
14191;SDS011;7177;48.572;7.838;2023-04-24T14:39:37;2.13;;;1.80;;
14191;SDS011;7177;48.572;7.838;2023-04-24T14:42:03;2.57;;;1.93;;
14191;SDS011;7177;48.572;7.838;2023-04-24T14:44:28;4.13;;;1.90;;
14191;SDS011;7177;48.572;7.838;2023-04-24T14:46:54;2.73;;;1.67;;
14191;SDS011;7177;48.572;7.838;2023-04-24T14:49:19;2.47;;;1.90;;
14191;SDS011;7177;48.572;7.838;2023-04-24T14:51:45;1.60;;;1.50;;
14191;SDS011;7177;48.572;7.838;2023-04-24T14:54:10;3.93;;;2.00;;
14191;SDS011;7177;48.572;7.838;2023-04-24T14:56:36;2.67;;;2.13;;
14191;SDS011;7177;48.572;7.838;2023-04-24T14:59:02;3.67;;;2.40;;
14191;SDS011;7177;48.572;7.838;2023-04-24T15:01:29;4.83;;;2.43;;
14191;SDS011;7177;48.572;7.838;2023-04-24T15:03:54;3.13;;;2.30;;